Time;durP1;ratioP1;P1;durP2;ratioP2;P2;SDS_P1;SDS_P2;PMS_P1;PMS_P2;Temp;Humidity;BMP_temperature;BMP_pressure;BME280_temperature;BME280_humidity;BME280_pressure;Samples;Min_cycle;Max_cycle;Signal;HPM_P1;HPM_P2
2021/03/15 00:01:44;;;;;;;5.45;3.00;;;2.50;99.90;;;;;;4823322;29;20141;-77
2021/03/15 00:04:15;;;;;;;4.07;3.20;;;2.40;99.90;;;;;;4808817;29;20452;-77
2021/03/15 00:06:46;;;;;;;5.20;3.78;;;2.50;99.90;;;;;;4810705;29;20144;-78
2021/03/15 00:09:18;;;;;;;5.78;3.67;;;2.50;99.90;;;;;;4812108;29;20062;-77
2021/03/15 00:11:49;;;;;;;8.02;4.10;;;2.50;99.90;;;;;;4812354;29;20377;-78
2021/03/15 00:14:21;;;;;;;5.10;3.38;;;2.50;99.90;;;;;;4812303;29;20462;-77
2021/03/15 00:16:48;;;;;;;7.00;3.78;;;2.40;99.90;;;;;;4826247;29;20516;-77
2021/03/15 00:19:19;;;;;;;5.00;3.55;;;2.40;99.90;;;;;;4826285;29;20050;-78
2021/03/15 00:21:51;;;;;;;5.00;3.67;;;2.40;99.90;;;;;;4826453;29;20046;-78
2021/03/15 00:24:22;;;;;;;6.25;3.60;;;2.50;99.90;;;;;;4825813;29;20060;-78
2021/03/15 00:26:53;;;;;;;6.88;3.70;;;2.40;99.90;;;;;;4826885;29;20054;-78
2021/03/15 00:29:25;;;;;;;7.55;3.63;;;2.40;99.90;;;;;;4826628;29;20078;-78
2021/03/15 00:31:56;;;;;;;5.55;4.18;;;2.40;99.90;;;;;;4827033;29;20052;-77
2021/03/15 00:34:27;;;;;;;6.70;4.05;;;2.40;99.90;;;;;;4811753;29;20137;-77
2021/03/15 00:36:59;;;;;;;5.35;4.32;;;2.40;99.90;;;;;;4827123;29;20409;-79
2021/03/15 00:39:26;;;;;;;5.55;3.75;;;2.40;99.90;;;;;;4825798;29;20117;-78
2021/03/15 00:41:57;;;;;;;6.00;4.10;;;2.40;99.90;;;;;;4811692;29;20046;-77
2021/03/15 00:44:28;;;;;;;6.63;3.55;;;2.30;99.90;;;;;;4811779;29;20110;-78
2021/03/15 00:47:02;;;;;;;6.32;4.47;;;2.30;99.90;;;;;;4811852;29;20078;-78
2021/03/15 00:49:34;;;;;;;7.13;4.07;;;2.30;99.90;;;;;;4825966;29;20053;-78
2021/03/15 00:52:06;;;;;;;7.03;3.47;;;2.20;99.90;;;;;;4811550;29;20110;-79
2021/03/15 00:54:32;;;;;;;5.45;3.90;;;2.20;99.90;;;;;;4825755;29;20081;-77
2021/03/15 00:57:13;;;;;;;8.10;3.83;;;2.20;99.90;;;;;;4825974;29;20042;-78
2021/03/15 00:59:39;;;;;;;4.72;3.58;;;2.10;99.90;;;;;;4810793;29;20054;-77
2021/03/15 01:02:11;;;;;;;8.38;4.05;;;2.00;99.90;;;;;;4811522;29;20070;-77
2021/03/15 01:04:38;;;;;;;6.38;4.47;;;2.10;99.90;;;;;;4825742;29;20437;-77
2021/03/15 01:07:18;;;;;;;5.53;4.30;;;2.00;99.90;;;;;;4812574;29;20053;-78
2021/03/15 01:09:50;;;;;;;5.18;4.00;;;2.00;99.90;;;;;;4825598;29;20514;-77
2021/03/15 01:12:36;;;;;;;5.40;3.97;;;1.90;99.90;;;;;;4813325;29;20186;-78
2021/03/15 01:15:10;;;;;;;6.43;3.65;;;1.90;99.90;;;;;;4825392;29;20099;-77
2021/03/15 01:17:48;;;;;;;5.28;3.15;;;2.00;99.90;;;;;;4812097;29;20115;-77
2021/03/15 01:20:20;;;;;;;5.47;3.05;;;1.90;99.90;;;;;;4811324;29;20042;-78
2021/03/15 01:22:52;;;;;;;5.35;3.15;;;1.90;99.90;;;;;;4825351;29;20050;-77
2021/03/15 01:25:29;;;;;;;7.63;3.40;;;1.90;99.90;;;;;;4825517;29;20049;-77
2021/03/15 01:28:03;;;;;;;5.15;3.17;;;1.90;99.90;;;;;;4811025;29;20340;-78
2021/03/15 01:30:35;;;;;;;6.35;3.88;;;1.80;99.90;;;;;;4811006;29;20107;-78
2021/03/15 01:33:06;;;;;;;5.70;3.45;;;1.80;99.90;;;;;;4810908;29;20506;-77
2021/03/15 01:35:38;;;;;;;5.22;3.08;;;1.70;99.90;;;;;;4826092;29;20042;-77
2021/03/15 01:38:10;;;;;;;5.78;3.50;;;1.70;99.90;;;;;;4825547;29;20124;-77
2021/03/15 01:40:43;;;;;;;5.68;3.60;;;1.70;99.90;;;;;;4825189;29;20084;-78
2021/03/15 01:43:14;;;;;;;5.17;3.70;;;1.70;99.90;;;;;;4825246;29;20046;-78
2021/03/15 01:45:45;;;;;;;4.32;3.35;;;1.70;99.90;;;;;;4810836;29;20106;-78
2021/03/15 01:48:13;;;;;;;6.32;3.80;;;1.80;99.90;;;;;;4809591;29;20054;-77
2021/03/15 01:50:47;;;;;;;5.93;3.50;;;1.80;99.90;;;;;;4825727;29;20053;-78
2021/03/15 01:53:19;;;;;;;5.88;3.05;;;1.70;99.90;;;;;;4825734;29;20038;-77
2021/03/15 01:55:51;;;;;;;5.35;2.95;;;1.80;99.90;;;;;;4810315;29;20574;-77
2021/03/15 01:58:18;;;;;;;5.53;3.72;;;1.80;99.90;;;;;;4809494;29;20056;-78
2021/03/15 02:00:49;;;;;;;6.10;3.22;;;1.80;99.90;;;;;;4809942;29;20070;-78
2021/03/15 02:03:20;;;;;;;4.60;3.15;;;1.80;99.90;;;;;;4824086;29;20058;-77
2021/03/15 02:05:51;;;;;;;6.05;3.38;;;1.80;99.90;;;;;;4824288;29;20073;-77
2021/03/15 02:08:23;;;;;;;5.15;3.30;;;1.80;99.90;;;;;;4824473;29;20056;-77
2021/03/15 02:10:54;;;;;;;4.90;3.42;;;1.80;99.90;;;;;;4810223;29;20142;-77
2021/03/15 02:13:52;;;;;;;4.07;3.05;;;1.80;99.90;;;;;;4824650;29;20057;-78
2021/03/15 02:16:54;;;;;;;4.57;3.22;;;1.80;99.90;;;;;;4825980;29;20053;-77
2021/03/15 02:19:44;;;;;;;7.07;3.35;;;1.90;99.90;;;;;;4825274;29;20045;-78
2021/03/15 02:22:40;;;;;;;6.07;3.65;;;1.90;99.90;;;;;;4841020;29;20468;-77
2021/03/15 02:25:33;;;;;;;5.70;3.22;;;1.90;99.90;;;;;;4824395;29;20050;-77
2021/03/15 02:28:40;;;;;;;4.43;3.67;;;1.80;99.90;;;;;;4809621;29;20454;-77
2021/03/15 02:31:49;;;;;;;6.63;4.07;;;1.90;99.90;;;;;;4810040;29;20049;-77
2021/03/15 02:35:00;;;;;;;5.68;3.67;;;1.80;99.90;;;;;;4823937;29;20425;-78
2021/03/15 02:37:54;;;;;;;4.63;3.50;;;1.80;99.90;;;;;;4801256;29;20050;-77
2021/03/15 02:40:30;;;;;;;4.75;3.40;;;1.80;99.90;;;;;;4810211;29;20122;-78
2021/03/15 02:43:05;;;;;;;6.57;3.72;;;1.80;99.90;;;;;;4810001;29;20042;-77
2021/03/15 02:45:37;;;;;;;6.32;3.42;;;1.80;99.90;;;;;;4824346;29;20527;-77
2021/03/15 02:48:07;;;;;;;5.03;3.60;;;1.90;99.90;;;;;;4809173;29;20054;-78
2021/03/15 02:50:45;;;;;;;4.80;3.42;;;1.80;99.90;;;;;;4809996;29;20064;-77
2021/03/15 02:53:18;;;;;;;4.20;3.38;;;1.80;99.90;;;;;;4809678;29;20046;-77
2021/03/15 02:55:55;;;;;;;4.82;3.65;;;1.80;99.90;;;;;;4824485;29;20054;-77
2021/03/15 02:58:28;;;;;;;6.15;3.88;;;1.90;99.90;;;;;;4824044;29;20050;-78
2021/03/15 03:01:01;;;;;;;5.03;3.25;;;1.80;99.90;;;;;;4824332;29;20455;-77
2021/03/15 03:03:33;;;;;;;6.22;3.40;;;1.80;99.90;;;;;;4824539;29;20057;-77
2021/03/15 03:06:06;;;;;;;4.93;3.05;;;1.80;99.90;;;;;;4824783;29;20130;-77
2021/03/15 03:08:38;;;;;;;5.40;3.58;;;1.80;99.90;;;;;;4808915;29;20413;-77
2021/03/15 03:11:10;;;;;;;5.00;3.70;;;1.80;99.90;;;;;;4809409;29;20568;-77
2021/03/15 03:13:43;;;;;;;4.40;3.50;;;1.80;99.90;;;;;;4823884;29;20048;-77
2021/03/15 03:16:15;;;;;;;4.28;2.92;;;1.80;99.90;;;;;;4824072;29;20045;-77
2021/03/15 03:18:50;;;;;;;6.13;3.33;;;1.90;99.90;;;;;;4823154;29;20056;-77
2021/03/15 03:21:22;;;;;;;4.45;3.67;;;1.90;99.90;;;;;;4824731;29;20042;-77
2021/03/15 03:23:56;;;;;;;4.05;3.15;;;1.90;99.90;;;;;;4823528;29;20046;-77
2021/03/15 03:26:29;;;;;;;5.00;3.85;;;1.90;99.90;;;;;;4823404;29;20082;-77
2021/03/15 03:29:00;;;;;;;6.90;3.60;;;1.90;99.90;;;;;;4823021;29;20418;-77
2021/03/15 03:31:36;;;;;;;5.75;3.85;;;1.90;99.90;;;;;;4808782;29;20134;-77
2021/03/15 03:34:08;;;;;;;5.68;4.22;;;1.90;99.90;;;;;;4823636;29;20507;-77
2021/03/15 03:36:40;;;;;;;5.32;3.60;;;1.90;99.90;;;;;;4809137;29;20046;-77
2021/03/15 03:39:12;;;;;;;4.82;3.53;;;1.90;99.90;;;;;;4823243;29;20053;-77
2021/03/15 03:41:44;;;;;;;7.93;4.15;;;1.90;99.90;;;;;;4808154;29;20066;-77
2021/03/15 03:44:16;;;;;;;5.80;3.63;;;1.90;99.90;;;;;;4823609;29;20046;-77
2021/03/15 03:46:47;;;;;;;5.40;3.85;;;1.90;99.90;;;;;;4823497;29;20046;-77
2021/03/15 03:49:19;;;;;;;6.20;4.25;;;1.90;99.90;;;;;;4808495;29;20050;-78
2021/03/15 03:52:08;;;;;;;5.55;3.88;;;1.90;99.90;;;;;;4809022;29;20447;-77
2021/03/15 03:54:45;;;;;;;7.50;3.88;;;1.90;99.90;;;;;;4823219;29;20046;-77
2021/03/15 03:57:37;;;;;;;6.70;3.90;;;1.90;99.90;;;;;;4823480;29;20366;-77
2021/03/15 04:00:11;;;;;;;7.40;4.22;;;1.90;99.90;;;;;;4808734;29;20356;-78
2021/03/15 04:02:54;;;;;;;4.25;3.75;;;1.90;99.90;;;;;;4808749;29;20113;-77
2021/03/15 04:05:31;;;;;;;6.63;4.63;;;1.90;99.90;;;;;;4823180;29;20054;-78
2021/03/15 04:08:07;;;;;;;5.85;3.90;;;1.90;99.90;;;;;;4822866;29;20413;-77
2021/03/15 04:10:39;;;;;;;7.55;4.35;;;1.90;99.90;;;;;;4808555;29;20391;-77
2021/03/15 04:13:12;;;;;;;6.70;3.47;;;1.90;99.90;;;;;;4808469;29;20636;-77
2021/03/15 04:15:46;;;;;;;5.82;3.90;;;1.90;99.90;;;;;;4808773;29;20050;-78
2021/03/15 04:18:19;;;;;;;;;;;1.80;99.90;;;;;;4808934;29;20058;-77
2021/03/15 04:20:50;;;;;;;6.78;4.13;;;1.70;99.90;;;;;;4823081;29;20312;-78
2021/03/15 04:23:30;;;;;;;6.10;4.20;;;1.70;99.90;;;;;;4839302;29;20057;-77
2021/03/15 04:26:01;;;;;;;7.93;4.88;;;1.70;99.90;;;;;;4823126;29;20082;-77
2021/03/15 04:28:36;;;;;;;5.93;4.28;;;1.70;99.90;;;;;;4839222;29;20046;-77
2021/03/15 04:31:09;;;;;;;5.88;4.10;;;1.80;99.90;;;;;;4826516;29;20049;-77
2021/03/15 04:33:41;;;;;;;6.35;4.20;;;1.80;99.90;;;;;;4824166;29;20050;-76
2021/03/15 04:36:14;;;;;;;7.35;4.50;;;1.80;99.90;;;;;;4808502;29;20412;-77
2021/03/15 04:38:42;;;;;;;6.15;4.13;;;1.80;99.90;;;;;;4822526;29;20050;-76
2021/03/15 04:41:16;;;;;;;7.10;3.85;;;1.80;99.90;;;;;;4808092;29;20077;-77
2021/03/15 04:43:51;;;;;;;5.78;4.18;;;1.80;99.90;;;;;;4822378;29;20510;-77
2021/03/15 04:46:22;;;;;;;8.48;4.30;;;1.80;99.90;;;;;;4822932;29;20050;-77
2021/03/15 04:48:54;;;;;;;6.05;4.32;;;1.80;99.90;;;;;;4807769;29;20150;-77
2021/03/15 04:51:26;;;;;;;6.00;3.97;;;1.80;99.90;;;;;;4808082;29;20499;-77
2021/03/15 04:53:57;;;;;;;6.40;3.85;;;1.80;99.90;;;;;;4811381;29;20046;-77
2021/03/15 04:56:25;;;;;;;6.72;4.03;;;1.80;99.90;;;;;;4842327;29;20120;-77
2021/03/15 04:58:59;;;;;;;7.63;4.55;;;1.70;99.90;;;;;;4826799;29;20328;-77
2021/03/15 05:01:33;;;;;;;7.80;3.55;;;1.70;99.90;;;;;;4826068;29;20068;-77
2021/03/15 05:04:08;;;;;;;6.35;3.88;;;1.70;99.90;;;;;;4825606;29;20046;-77
2021/03/15 05:06:42;;;;;;;5.38;4.35;;;1.70;99.90;;;;;;4842091;29;20502;-76
2021/03/15 05:09:14;;;;;;;;;;;1.70;99.90;;;;;;4810915;29;20077;-77
2021/03/15 05:11:42;;;;;;;6.03;4.10;;;1.80;99.90;;;;;;4825623;29;19935;-77
2021/03/15 05:14:15;;;;;;;5.80;4.32;;;1.80;99.90;;;;;;4811146;29;20443;-76
2021/03/15 05:16:47;;;;;;;6.75;4.22;;;1.70;99.90;;;;;;4826367;29;20050;-77
2021/03/15 05:19:20;;;;;;;6.57;3.60;;;1.80;99.90;;;;;;4811150;29;20048;-77
2021/03/15 05:21:48;;;;;;;7.15;3.78;;;1.80;99.90;;;;;;4825138;29;20038;-77
2021/03/15 05:24:19;;;;;;;8.37;4.13;;;1.80;99.90;;;;;;4825358;29;20541;-77
2021/03/15 05:26:51;;;;;;;8.93;4.50;;;1.80;99.90;;;;;;4825428;29;20067;-77
2021/03/15 05:29:23;;;;;;;6.38;4.03;;;1.80;99.90;;;;;;4824592;29;20124;-77
2021/03/15 05:31:55;;;;;;;5.30;3.83;;;1.80;99.90;;;;;;4825149;29;20077;-77
2021/03/15 05:34:29;;;;;;;5.63;4.07;;;1.80;99.90;;;;;;4824022;29;20052;-77
2021/03/15 05:36:58;;;;;;;8.63;4.78;;;1.80;99.90;;;;;;4825129;29;20141;-77
2021/03/15 05:39:29;;;;;;;;;;;1.80;99.90;;;;;;4826224;29;20499;-77
2021/03/15 05:42:21;;;;;;;5.55;4.25;;;1.80;99.90;;;;;;4826111;29;20472;-77
2021/03/15 05:45:06;;;;;;;6.78;3.70;;;1.80;99.90;;;;;;4810702;29;20054;-77
2021/03/15 05:48:03;;;;;;;7.35;4.43;;;1.80;99.90;;;;;;4824706;29;20050;-76
2021/03/15 05:51:10;;;;;;;6.82;3.63;;;1.80;99.90;;;;;;4810478;29;20052;-77
2021/03/15 05:54:07;;;;;;;4.57;3.67;;;1.80;99.90;;;;;;4810559;29;20057;-77
2021/03/15 05:56:57;;;;;;;10.45;4.65;;;1.90;99.90;;;;;;4810530;29;20135;-77
2021/03/15 05:59:53;;;;;;;9.15;4.50;;;1.80;99.90;;;;;;4824658;29;20046;-77
2021/03/15 06:02:42;;;;;;;6.45;3.70;;;1.90;99.90;;;;;;4810223;29;20050;-77
2021/03/15 06:05:18;;;;;;;6.97;3.95;;;1.80;99.90;;;;;;4823990;29;20054;-77
2021/03/15 06:07:53;;;;;;;8.02;4.43;;;1.80;99.90;;;;;;4824457;29;20413;-77
2021/03/15 06:10:35;;;;;;;6.93;3.80;;;1.80;99.90;;;;;;4809995;29;20050;-77
2021/03/15 06:13:15;;;;;;;4.45;3.60;;;1.80;99.90;;;;;;4808793;29;20428;-77
2021/03/15 06:15:47;;;;;;;4.90;3.30;;;1.80;99.90;;;;;;4822952;29;20056;-76
2021/03/15 06:18:19;;;;;;;5.38;3.67;;;1.80;99.90;;;;;;4823328;29;20045;-77
2021/03/15 06:20:50;;;;;;;7.32;4.03;;;1.80;99.90;;;;;;4824122;29;20477;-77
2021/03/15 06:23:22;;;;;;;6.18;3.58;;;1.80;99.90;;;;;;4823465;29;20049;-78
2021/03/15 06:25:54;;;;;;;5.90;3.92;;;1.90;99.90;;;;;;4823245;29;20053;-76
2021/03/15 06:28:25;;;;;;;7.43;4.20;;;1.80;99.90;;;;;;4822437;29;20050;-76
2021/03/15 06:30:57;;;;;;;6.53;4.40;;;1.90;99.90;;;;;;4823107;29;20046;-76
2021/03/15 06:33:28;;;;;;;7.00;4.85;;;1.90;99.90;;;;;;4824090;29;20046;-76
2021/03/15 06:36:07;;;;;;;6.25;4.13;;;2.00;99.90;;;;;;4823880;29;20491;-76
2021/03/15 06:38:40;;;;;;;5.93;4.18;;;2.00;99.90;;;;;;4822361;29;20521;-76
2021/03/15 06:41:14;;;;;;;5.85;4.13;;;2.00;99.90;;;;;;4808512;29;20103;-76
2021/03/15 06:43:45;;;;;;;8.43;4.47;;;2.00;99.90;;;;;;4823138;29;20140;-76
2021/03/15 06:46:15;;;;;;;5.72;3.75;;;2.00;99.90;;;;;;4823238;29;20053;-76
2021/03/15 06:48:42;;;;;;;8.73;4.47;;;2.10;99.90;;;;;;4822560;29;20141;-76
2021/03/15 06:51:14;;;;;;;7.45;4.43;;;2.10;99.90;;;;;;4808555;29;20502;-76
2021/03/15 06:53:45;;;;;;;5.50;3.85;;;2.10;99.90;;;;;;4808372;29;20444;-76
2021/03/15 06:56:20;;;;;;;6.38;4.20;;;2.20;99.90;;;;;;4822464;29;20046;-76
2021/03/15 06:58:53;;;;;;;7.30;5.35;;;2.20;99.90;;;;;;4837394;29;20050;-76
2021/03/15 07:01:25;;;;;;;6.80;4.43;;;2.20;99.90;;;;;;4822394;29;20038;-76
2021/03/15 07:04:06;;;;;;;6.35;5.20;;;2.20;99.90;;;;;;4837623;29;20079;-75
2021/03/15 07:06:41;;;;;;;6.88;3.85;;;2.30;99.90;;;;;;4823297;29;20054;-76
2021/03/15 07:09:15;;;;;;;4.80;3.53;;;2.30;99.90;;;;;;4821977;29;20570;-76
2021/03/15 07:12:01;;;;;;;6.35;4.32;;;2.30;99.90;;;;;;4822533;29;20094;-75
2021/03/15 07:14:32;;;;;;;6.47;4.70;;;2.40;99.90;;;;;;4837578;29;20048;-76
2021/03/15 07:17:03;;;;;;;6.95;4.65;;;2.50;99.90;;;;;;4822352;29;20099;-75
2021/03/15 07:19:30;;;;;;;10.60;4.40;;;2.50;99.90;;;;;;4821813;29;20049;-76
2021/03/15 07:22:17;;;;;;;8.60;4.85;;;2.50;99.90;;;;;;4822517;29;20049;-76
2021/03/15 07:25:12;;;;;;;9.50;4.25;;;2.50;99.90;;;;;;4822571;29;20056;-76
2021/03/15 07:27:52;;;;;;;9.52;4.85;;;2.50;99.90;;;;;;4822926;29;20110;-76
2021/03/15 07:30:28;;;;;;;5.65;4.53;;;2.60;99.90;;;;;;4838152;29;20510;-76
2021/03/15 07:33:03;;;;;;;6.47;4.40;;;2.60;99.90;;;;;;4822645;29;20049;-76
2021/03/15 07:35:35;;;;;;;7.20;4.88;;;2.50;99.90;;;;;;4822716;29;20052;-76
2021/03/15 07:38:07;;;;;;;6.72;4.32;;;2.60;99.90;;;;;;4822686;29;20541;-76
2021/03/15 07:40:44;;;;;;;6.72;4.30;;;2.60;99.90;;;;;;4822646;29;20125;-77
2021/03/15 07:43:16;;;;;;;6.35;4.25;;;2.60;99.90;;;;;;4822988;29;20052;-76
2021/03/15 07:45:48;;;;;;;5.65;3.63;;;2.60;99.90;;;;;;4822856;29;20129;-76
2021/03/15 07:48:24;;;;;;;7.43;4.18;;;2.60;99.90;;;;;;4823104;29;20054;-76
2021/03/15 07:51:01;;;;;;;5.82;4.15;;;2.70;99.90;;;;;;4823185;29;20581;-76
2021/03/15 07:53:47;;;;;;;5.55;3.90;;;2.70;99.90;;;;;;4822688;29;20046;-76
2021/03/15 07:56:20;;;;;;;6.45;3.65;;;2.70;99.90;;;;;;4822580;29;20495;-76
2021/03/15 07:58:52;;;;;;;5.63;3.65;;;2.80;99.90;;;;;;4822957;29;20042;-76
2021/03/15 08:01:27;;;;;;;5.82;3.42;;;2.80;99.90;;;;;;4825100;29;20461;-76
2021/03/15 08:03:58;;;;;;;8.95;4.13;;;2.80;99.90;;;;;;4840092;29;20462;-76
2021/03/15 08:06:31;;;;;;;4.63;2.70;;;2.80;99.90;;;;;;4825767;29;20482;-75
2021/03/15 08:09:02;;;;;;;4.30;2.75;;;2.80;99.90;;;;;;4833913;29;20061;-76
2021/03/15 08:11:34;;;;;;;6.15;3.15;;;2.80;99.90;;;;;;4826618;29;20049;-77
2021/03/15 08:14:05;;;;;;;3.53;2.70;;;2.90;99.90;;;;;;4834875;29;20124;-76
2021/03/15 08:16:37;;;;;;;4.07;2.47;;;2.80;99.90;;;;;;4834364;29;20046;-76
2021/03/15 08:19:04;;;;;;;3.45;2.50;;;2.80;99.90;;;;;;4837505;29;20124;-76
2021/03/15 08:21:37;;;;;;;3.40;2.35;;;2.90;99.90;;;;;;4825031;29;20046;-76
2021/03/15 08:24:13;;;;;;;2.88;2.20;;;2.90;99.90;;;;;;4820776;29;20441;-76
2021/03/15 08:26:47;;;;;;;3.90;2.33;;;2.90;99.90;;;;;;4831496;29;20060;-76
2021/03/15 08:29:18;;;;;;;4.45;2.15;;;2.90;99.90;;;;;;4843963;29;20148;-77
2021/03/15 08:31:53;;;;;;;3.00;2.30;;;3.00;99.90;;;;;;4826763;29;20042;-76
2021/03/15 08:34:26;;;;;;;2.30;1.95;;;3.00;99.90;;;;;;4810791;29;20038;-77
2021/03/15 08:36:58;;;;;;;3.88;2.28;;;3.00;99.90;;;;;;4825117;29;20513;-76
2021/03/15 08:39:30;;;;;;;4.63;2.33;;;3.00;99.90;;;;;;4810565;29;20601;-76
2021/03/15 08:42:13;;;;;;;2.28;1.92;;;3.00;99.90;;;;;;4828924;29;20072;-77
2021/03/15 08:44:45;;;;;;;3.13;2.40;;;3.00;99.90;;;;;;4812097;29;20056;-77
2021/03/15 08:47:50;;;;;;;3.10;2.50;;;3.00;99.90;;;;;;4832251;29;20053;-76
2021/03/15 08:50:33;;;;;;;2.92;2.17;;;2.90;99.90;;;;;;4826263;29;20078;-77
2021/03/15 08:53:04;;;;;;;3.00;2.05;;;2.90;99.90;;;;;;4810781;29;20111;-77
2021/03/15 08:55:42;;;;;;;2.53;2.33;;;3.00;99.90;;;;;;4825015;29;20073;-77
2021/03/15 08:58:52;;;;;;;2.83;1.98;;;3.00;99.90;;;;;;4825180;29;20129;-76
2021/03/15 09:01:25;;;;;;;2.95;2.00;;;3.00;99.90;;;;;;4789213;29;20063;-76
2021/03/15 09:04:04;;;;;;;3.03;2.20;;;3.10;99.90;;;;;;4823356;29;20110;-76
2021/03/15 09:06:36;;;;;;;2.42;2.03;;;3.20;99.90;;;;;;4824405;29;20069;-76
2021/03/15 09:09:14;;;;;;;3.20;1.92;;;3.20;99.90;;;;;;4815841;29;20050;-77
2021/03/15 09:11:50;;;;;;;2.15;1.67;;;3.30;99.90;;;;;;4827850;29;20211;-76
2021/03/15 09:14:27;;;;;;;2.20;1.10;;;3.30;99.90;;;;;;4840511;29;20593;-76
2021/03/15 09:17:09;;;;;;;1.42;1.20;;;3.30;99.90;;;;;;4806688;29;20050;-76
2021/03/15 09:19:43;;;;;;;1.70;1.25;;;3.40;99.90;;;;;;4816995;29;20073;-76
2021/03/15 09:22:22;;;;;;;1.10;0.90;;;3.40;99.90;;;;;;4819593;29;20061;-76
2021/03/15 09:25:21;;;;;;;1.30;1.00;;;3.50;99.90;;;;;;4851607;29;20585;-75
2021/03/15 09:27:54;;;;;;;1.27;1.00;;;3.50;99.90;;;;;;4824946;29;20054;-76
2021/03/15 09:30:30;;;;;;;1.33;1.00;;;3.60;99.90;;;;;;4810453;29;20045;-76
2021/03/15 09:32:57;;;;;;;1.20;1.00;;;3.50;99.90;;;;;;4822572;29;20389;-76
2021/03/15 09:35:41;;;;;;;2.50;1.48;;;3.50;99.90;;;;;;4824235;29;20042;-76
2021/03/15 09:38:14;;;;;;;1.88;1.33;;;3.50;99.90;;;;;;4825382;29;20409;-76
2021/03/15 09:40:43;;;;;;;1.77;1.25;;;3.50;99.90;;;;;;4842253;29;20046;-76
2021/03/15 09:43:22;;;;;;;1.95;1.30;;;3.50;99.90;;;;;;4824474;29;20042;-76
2021/03/15 09:46:04;;;;;;;1.50;1.00;;;3.50;99.90;;;;;;4816297;29;20054;-76
2021/03/15 09:48:38;;;;;;;1.70;1.20;;;3.60;99.90;;;;;;4824340;29;20102;-76
2021/03/15 09:51:09;;;;;;;2.15;1.00;;;3.60;99.90;;;;;;4841276;29;20129;-76
2021/03/15 09:53:54;;;;;;;1.65;1.17;;;3.60;99.90;;;;;;4811703;29;20050;-76
2021/03/15 09:56:35;;;;;;;1.17;0.85;;;3.50;99.90;;;;;;4824615;29;20048;-76
2021/03/15 09:59:31;;;;;;;1.50;0.93;;;3.40;99.90;;;;;;4812693;29;20070;-76
2021/03/15 10:02:03;;;;;;;1.55;1.13;;;3.40;99.90;;;;;;4824673;29;20103;-76
2021/03/15 10:05:05;;;;;;;1.52;1.02;;;3.30;99.90;;;;;;4790120;29;20062;-76
2021/03/15 10:07:55;;;;;;;1.10;0.93;;;3.30;99.90;;;;;;4838673;29;20594;-76
2021/03/15 10:10:46;;;;;;;1.30;1.10;;;3.30;99.90;;;;;;4836805;29;20046;-76
2021/03/15 10:13:40;;;;;;;1.50;1.40;;;3.20;99.90;;;;;;4805011;29;20058;-76
2021/03/15 10:16:56;;;;;;;1.35;0.90;;;3.20;99.90;;;;;;4827027;29;20073;-76
2021/03/15 10:19:40;;;;;;;1.00;0.70;;;3.20;99.90;;;;;;4826669;29;20076;-76
2021/03/15 10:22:18;;;;;;;1.27;0.95;;;3.20;99.90;;;;;;4810365;29;20038;-77
2021/03/15 10:24:56;;;;;;;1.52;1.02;;;3.20;99.90;;;;;;4811223;29;20084;-76
2021/03/15 10:27:33;;;;;;;2.20;1.10;;;3.20;99.90;;;;;;4818887;29;20042;-76
2021/03/15 10:30:09;;;;;;;1.10;0.93;;;3.20;99.90;;;;;;4823913;29;20517;-76
2021/03/15 10:32:43;;;;;;;1.50;1.27;;;3.30;99.90;;;;;;4812886;29;20102;-76
2021/03/15 10:35:19;;;;;;;1.95;0.93;;;3.30;99.90;;;;;;4832207;29;20411;-77
2021/03/15 10:38:04;;;;;;;1.50;1.27;;;3.30;99.90;;;;;;4820921;29;20460;-76
2021/03/15 10:40:50;;;;;;;1.80;1.55;;;3.40;99.90;;;;;;4825023;29;20073;-76
2021/03/15 10:43:24;;;;;;;1.58;1.13;;;3.50;99.90;;;;;;4824327;29;20570;-76
2021/03/15 10:46:30;;;;;;;1.40;1.13;;;3.50;99.90;;;;;;4835686;29;20131;-77
2021/03/15 10:49:24;;;;;;;1.85;1.38;;;3.50;99.90;;;;;;4805855;29;20506;-76
2021/03/15 10:52:29;;;;;;;1.70;1.50;;;3.50;99.90;;;;;;4810980;29;20065;-76
2021/03/15 10:55:20;;;;;;;1.65;1.30;;;3.50;99.90;;;;;;4818946;29;20046;-79
2021/03/15 10:58:15;;;;;;;2.03;1.67;;;3.60;99.90;;;;;;4836483;29;20050;-76
2021/03/15 11:01:03;;;;;;;1.52;1.20;;;3.70;99.90;;;;;;4826692;29;20046;-76
2021/03/15 11:03:42;;;;;;;1.30;1.20;;;3.80;99.90;;;;;;4828176;29;20292;-76
2021/03/15 11:06:22;;;;;;;1.52;1.27;;;3.90;99.90;;;;;;4809450;29;20049;-76
2021/03/15 11:09:09;;;;;;;1.40;1.10;;;4.00;99.90;;;;;;4823550;29;20480;-76
2021/03/15 11:11:36;;;;;;;1.63;1.10;;;4.00;99.90;;;;;;4828608;29;20054;-76
2021/03/15 11:14:14;;;;;;;1.98;1.63;;;4.00;99.90;;;;;;4808111;29;20103;-76
2021/03/15 11:16:59;;;;;;;1.45;1.10;;;4.00;99.90;;;;;;4809613;29;20079;-76
2021/03/15 11:19:27;;;;;;;1.35;1.00;;;4.00;99.90;;;;;;4809451;29;20065;-76
2021/03/15 11:21:59;;;;;;;1.98;1.23;;;3.90;99.90;;;;;;4805796;29;20045;-76
2021/03/15 11:24:48;;;;;;;1.13;1.00;;;3.90;99.90;;;;;;4813712;29;20642;-76
2021/03/15 11:27:36;;;;;;;1.15;0.95;;;4.00;99.90;;;;;;4833415;29;20050;-76
2021/03/15 11:30:27;;;;;;;1.67;1.40;;;3.90;99.90;;;;;;4825979;29;20073;-76
2021/03/15 11:33:14;;;;;;;1.90;1.23;;;4.00;99.90;;;;;;4829773;29;20405;-76
2021/03/15 11:36:19;;;;;;;1.50;1.08;;;4.00;99.90;;;;;;4831183;29;20061;-76
2021/03/15 11:39:09;;;;;;;1.48;0.82;;;4.10;99.90;;;;;;4834848;29;20505;-76
2021/03/15 11:42:33;;;;;;;1.52;1.00;;;4.10;99.90;;;;;;4824490;29;20128;-76
2021/03/15 11:45:11;;;;;;;1.45;1.10;;;4.30;99.90;;;;;;4817322;29;20114;-76
2021/03/15 11:47:43;;;;;;;1.20;1.00;;;4.30;99.90;;;;;;4823594;29;20046;-76
2021/03/15 11:50:38;;;;;;;2.35;1.38;;;4.40;99.90;;;;;;4823281;29;20115;-76
2021/03/15 11:53:18;;;;;;;1.30;1.00;;;4.40;99.90;;;;;;4822177;29;20134;-76
2021/03/15 11:55:51;;;;;;;1.53;1.00;;;4.40;99.90;;;;;;4806062;29;20050;-76
2021/03/15 11:58:23;;;;;;;1.35;1.25;;;4.40;99.90;;;;;;4822885;29;20046;-76
2021/03/15 12:01:37;;;;;;;2.65;1.30;;;4.30;99.90;;;;;;4809742;29;20042;-79
2021/03/15 12:04:43;;;;;;;1.45;1.10;;;4.30;99.90;;;;;;4844222;29;20057;-76
2021/03/15 12:07:15;;;;;;;1.38;1.13;;;4.30;99.90;;;;;;4811191;29;20102;-76
2021/03/15 12:09:52;;;;;;;1.17;1.00;;;4.40;99.90;;;;;;4812542;29;20082;-76
2021/03/15 12:12:25;;;;;;;2.03;1.30;;;4.50;99.90;;;;;;4827264;29;20038;-75
2021/03/15 12:15:14;;;;;;;1.42;1.10;;;4.50;99.90;;;;;;4812658;29;20046;-76
2021/03/15 12:17:47;;;;;;;1.65;1.25;;;4.60;99.90;;;;;;4825414;29;20049;-77
2021/03/15 12:20:18;;;;;;;1.30;0.98;;;4.60;99.90;;;;;;4825671;29;20045;-76
2021/03/15 12:22:57;;;;;;;11.57;5.20;;;4.70;99.90;;;;;;4826648;29;20453;-76
2021/03/15 12:25:29;;;;;;;1.92;1.48;;;4.90;99.90;;;;;;4841708;29;20073;-76
2021/03/15 12:28:15;;;;;;;2.08;1.40;;;4.90;99.90;;;;;;4806875;29;20058;-76
2021/03/15 12:30:46;;;;;;;1.90;1.60;;;4.80;99.90;;;;;;4806987;29;20506;-76
2021/03/15 12:33:18;;;;;;;2.70;1.40;;;4.90;99.90;;;;;;4806940;29;20507;-75
2021/03/15 12:35:50;;;;;;;1.52;1.38;;;4.90;99.90;;;;;;4792452;29;20103;-76
2021/03/15 12:38:21;;;;;;;3.67;1.80;;;4.80;99.90;;;;;;4820519;29;20137;-76
2021/03/15 12:40:53;;;;;;;1.98;1.52;;;4.80;99.90;;;;;;4810368;29;20046;-76
2021/03/15 12:43:25;;;;;;;1.40;1.20;;;4.70;99.90;;;;;;4825691;29;20053;-76
2021/03/15 12:46:22;;;;;;;2.42;1.60;;;4.50;99.90;;;;;;4826308;29;20158;-75
2021/03/15 12:49:04;;;;;;;1.92;1.58;;;4.50;99.90;;;;;;4811305;29;20057;-76
2021/03/15 12:51:35;;;;;;;1.83;1.27;;;4.50;99.90;;;;;;4810501;29;20060;-76
2021/03/15 12:54:07;;;;;;;1.30;1.05;;;4.50;99.90;;;;;;4824505;29;20068;-76
2021/03/15 12:56:47;;;;;;;2.08;1.08;;;4.50;99.90;;;;;;4811367;29;20046;-77
2021/03/15 12:59:24;;;;;;;1.63;1.23;;;4.40;99.90;;;;;;4810636;29;20038;-77
2021/03/15 13:01:55;;;;;;;1.83;1.65;;;4.50;99.90;;;;;;4824572;29;20065;-76
2021/03/15 13:04:28;;;;;;;1.27;1.10;;;4.40;99.90;;;;;;4809959;29;20133;-76
2021/03/15 13:07:01;;;;;;;1.20;1.10;;;4.40;99.90;;;;;;4824305;29;20441;-76
2021/03/15 13:09:52;;;;;;;1.13;0.90;;;4.50;99.90;;;;;;4823735;29;20054;-76
2021/03/15 13:12:36;;;;;;;1.50;1.13;;;4.30;99.90;;;;;;4824282;29;20655;-77
2021/03/15 13:15:14;;;;;;;1.30;1.02;;;4.30;99.90;;;;;;4826134;29;20095;-76
2021/03/15 13:17:52;;;;;;;1.60;1.10;;;4.30;99.90;;;;;;4823981;29;20053;-76
2021/03/15 13:20:33;;;;;;;1.20;0.95;;;4.40;99.90;;;;;;4810607;29;20526;-76
2021/03/15 13:23:04;;;;;;;1.33;1.10;;;4.50;99.90;;;;;;4809866;29;20099;-75
2021/03/15 13:25:51;;;;;;;2.08;1.20;;;4.60;99.90;;;;;;4824183;29;20498;-76
2021/03/15 13:28:30;;;;;;;1.67;1.30;;;4.60;99.90;;;;;;4810099;29;20133;-75
2021/03/15 13:31:03;;;;;;;1.13;0.93;;;4.60;99.90;;;;;;4809950;29;20038;-75
2021/03/15 13:33:36;;;;;;;1.00;0.90;;;4.70;99.90;;;;;;4823166;29;20128;-76
2021/03/15 13:36:16;;;;;;;1.35;1.15;;;4.70;99.90;;;;;;4824565;29;20525;-76
2021/03/15 13:39:03;;;;;;;2.28;1.00;;;4.70;99.90;;;;;;4809134;29;20136;-76
2021/03/15 13:41:37;;;;;;;0.98;0.73;;;4.70;99.90;;;;;;4824304;29;20064;-76
2021/03/15 13:44:27;;;;;;;1.60;1.40;;;4.70;99.90;;;;;;4827767;29;20544;-76
2021/03/15 13:46:58;;;;;;;2.22;1.15;;;4.70;99.90;;;;;;4824476;29;20046;-76
2021/03/15 13:49:30;;;;;;;1.40;1.15;;;4.70;99.90;;;;;;4823675;29;20046;-76
2021/03/15 13:52:04;;;;;;;;;;;4.70;99.90;;;;;;4824191;29;20501;-76